createdAt,value
2019-06-27T06:04:07.394Z,8.93
2019-06-27T06:06:37.859Z,9.30
2019-06-27T06:09:08.359Z,8.10
2019-06-27T06:11:38.744Z,9.70
2019-06-27T06:14:09.151Z,8.87
2019-06-27T06:16:39.639Z,8.40
2019-06-27T06:19:10.093Z,9.23
2019-06-27T06:21:40.475Z,8.30
2019-06-27T06:24:10.877Z,8.97
2019-06-27T06:26:41.279Z,10.70
2019-06-27T06:29:13.411Z,8.80
2019-06-27T06:31:44.735Z,9.60
2019-06-27T06:34:15.133Z,9.53
2019-06-27T06:36:45.585Z,9.27
2019-06-27T06:39:17.916Z,10.07
2019-06-27T06:41:48.323Z,10.47
2019-06-27T06:44:21.980Z,8.13
2019-06-27T06:46:52.387Z,13.40
2019-06-27T06:49:22.966Z,8.63
2019-06-27T06:51:53.368Z,12.67
2019-06-27T06:54:23.974Z,9.60
2019-06-27T06:56:54.363Z,11.17
2019-06-27T06:59:24.841Z,7.67
2019-06-27T07:02:02.351Z,10.33
2019-06-27T07:04:33.870Z,8.40
2019-06-27T07:07:04.472Z,7.77
2019-06-27T07:09:34.950Z,8.80
2019-06-27T07:12:05.476Z,9.35
2019-06-27T07:14:40.523Z,8.27
2019-06-27T07:17:10.915Z,9.10
2019-06-27T07:19:41.312Z,8.77
2019-06-27T07:22:11.701Z,8.03
2019-06-27T07:24:42.098Z,9.05
2019-06-27T07:27:12.491Z,8.58
2019-06-27T07:29:43.825Z,9.18
2019-06-27T07:32:14.273Z,9.85
2019-06-27T07:34:44.677Z,9.20
2019-06-27T07:37:15.145Z,9.68
2019-06-27T07:39:45.534Z,9.23
2019-06-27T07:42:16.076Z,11.55
2019-06-27T07:44:46.528Z,11.60
2019-06-27T07:47:16.929Z,9.53
2019-06-27T07:49:47.393Z,9.20
2019-06-27T07:52:17.869Z,9.80
2019-06-27T07:54:48.245Z,8.63
2019-06-27T07:57:19.688Z,8.70
2019-06-27T07:59:50.072Z,10.10
2019-06-27T08:02:20.538Z,8.78
2019-06-27T08:04:51.864Z,9.20
2019-06-27T08:07:22.364Z,8.93
2019-06-27T08:09:52.788Z,9.73
2019-06-27T08:12:23.320Z,9.60
2019-06-27T08:14:53.883Z,9.85
2019-06-27T08:17:24.267Z,9.50
2019-06-27T08:19:54.653Z,9.30
2019-06-27T08:22:25.048Z,9.95
2019-06-27T08:24:55.510Z,12.40
2019-06-27T08:27:26.805Z,11.93
2019-06-27T08:29:57.462Z,10.80
2019-06-27T08:32:27.963Z,13.07
2019-06-27T08:34:58.332Z,11.10
2019-06-27T08:37:28.731Z,9.70
2019-06-27T08:39:59.112Z,11.23
2019-06-27T08:42:29.536Z,10.35
2019-06-27T08:44:59.998Z,13.35
2019-06-27T08:47:30.399Z,12.58
2019-06-27T08:50:00.806Z,11.40
2019-06-27T08:52:31.248Z,9.95
2019-06-27T08:55:01.654Z,14.23
2019-06-27T08:57:32.124Z,10.18
2019-06-27T09:00:02.630Z,11.40
2019-06-27T09:02:33.853Z,9.98
2019-06-27T09:05:09.439Z,9.15
2019-06-27T09:07:39.977Z,12.93
2019-06-27T09:10:11.271Z,10.63
2019-06-27T09:12:41.658Z,11.50
2019-06-27T09:15:13.149Z,10.20
2019-06-27T09:17:43.591Z,9.48
2019-06-27T09:20:16.298Z,9.43
2019-06-27T09:22:46.683Z,11.00
2019-06-27T09:25:17.391Z,12.25
2019-06-27T09:27:47.905Z,12.97
2019-06-27T09:30:18.819Z,9.23
2019-06-27T09:32:49.260Z,9.43
2019-06-27T09:35:20.438Z,11.40
2019-06-27T09:37:51.088Z,10.30
2019-06-27T09:40:21.999Z,10.20
2019-06-27T09:42:52.601Z,12.13
2019-06-27T09:45:24.731Z,11.30
2019-06-27T09:47:55.194Z,12.73
2019-06-27T09:50:26.317Z,10.10
2019-06-27T09:52:56.765Z,10.53
2019-06-27T09:55:27.248Z,14.13
2019-06-27T09:57:57.630Z,10.27
2019-06-27T10:00:28.445Z,11.03
2019-06-27T10:02:58.915Z,12.77
2019-06-27T10:05:30.206Z,10.10
2019-06-27T10:08:01.112Z,12.17
2019-06-27T10:10:31.576Z,12.20
2019-06-27T10:13:02.041Z,10.57
2019-06-27T10:15:32.525Z,9.27
2019-06-27T10:18:03.179Z,11.80
2019-06-27T10:20:34.375Z,8.53
2019-06-27T10:23:05.124Z,15.23
2019-06-27T10:25:38.158Z,10.47
2019-06-27T10:28:07.598Z,11.10
2019-06-27T10:30:37.996Z,10.13
2019-06-27T10:33:08.462Z,13.23
2019-06-27T10:35:38.866Z,9.00
2019-06-27T10:38:09.247Z,10.20
2019-06-27T10:40:39.876Z,11.47
2019-06-27T10:43:10.231Z,11.60
2019-06-27T10:45:40.640Z,11.77
2019-06-27T10:48:12.714Z,11.17
2019-06-27T10:50:46.267Z,8.63
2019-06-27T10:53:15.422Z,9.93
2019-06-27T10:55:45.829Z,10.93
2019-06-27T10:58:16.222Z,8.77
2019-06-27T11:00:46.608Z,14.20
2019-06-27T11:03:17.029Z,8.17
2019-06-27T11:05:48.194Z,10.53
2019-06-27T11:08:19.336Z,9.67
2019-06-27T11:10:49.712Z,8.47
2019-06-27T11:13:20.128Z,10.20
2019-06-27T11:15:50.495Z,10.70
2019-06-27T11:18:26.680Z,9.87
2019-06-27T11:20:57.056Z,9.53
2019-06-27T11:23:27.587Z,12.90
2019-06-27T11:25:57.971Z,10.43
2019-06-27T11:28:28.370Z,10.70
2019-06-27T11:30:58.798Z,11.07
2019-06-27T11:33:33.078Z,12.40
2019-06-27T11:36:04.698Z,14.90
2019-06-27T11:38:33.758Z,11.30
2019-06-27T11:41:04.252Z,16.53
2019-06-27T11:43:34.615Z,9.23
2019-06-27T11:46:08.616Z,9.07
2019-06-27T11:48:37.163Z,11.40
2019-06-27T11:51:07.602Z,10.67
2019-06-27T11:53:37.985Z,10.47
2019-06-27T11:56:08.811Z,8.87
2019-06-27T11:58:39.247Z,8.50
2019-06-27T12:01:09.766Z,9.17
2019-06-27T12:03:49.527Z,8.40
2019-06-27T12:06:13.106Z,6.43
2019-06-27T12:08:43.585Z,10.47
2019-06-27T12:11:14.048Z,13.77
2019-06-27T12:13:44.429Z,9.23
2019-06-27T12:16:14.836Z,12.17
2019-06-27T12:18:45.269Z,8.97
2019-06-27T12:21:15.787Z,7.07
2019-06-27T12:23:46.188Z,10.50
2019-06-27T12:26:17.276Z,13.33
2019-06-27T12:28:48.609Z,7.70
2019-06-27T12:31:21.017Z,11.43
2019-06-27T12:34:05.557Z,11.77
2019-06-27T12:36:24.150Z,7.10
2019-06-27T12:38:54.522Z,9.77
2019-06-27T12:41:24.922Z,7.50
2019-06-27T12:43:55.450Z,6.63
2019-06-27T12:46:25.833Z,6.63
2019-06-27T12:48:58.885Z,7.47
2019-06-27T12:51:29.761Z,8.43
2019-06-27T12:54:00.154Z,6.27
2019-06-27T12:56:31.287Z,6.20
2019-06-27T12:59:01.675Z,6.20
2019-06-27T13:01:32.227Z,8.53
2019-06-27T13:04:04.309Z,6.70
2019-06-27T13:06:35.732Z,6.80
2019-06-27T13:09:06.930Z,7.53
2019-06-27T13:11:37.323Z,7.07
2019-06-27T13:14:07.716Z,8.30
2019-06-27T13:19:39.794Z,7.87
2019-06-27T13:22:10.765Z,8.93
2019-06-27T13:24:42.240Z,6.77
2019-06-27T13:27:20.267Z,9.87
2019-06-27T13:29:50.701Z,9.27
2019-06-27T13:32:24.440Z,8.37
2019-06-27T13:34:53.439Z,9.37
2019-06-27T13:37:25.676Z,8.37
2019-06-27T13:39:56.063Z,8.10
2019-06-27T13:42:26.508Z,8.30
2019-06-27T13:44:56.931Z,7.83
2019-06-27T13:47:27.556Z,10.67
2019-06-27T13:49:58.012Z,7.97
2019-06-27T13:52:28.640Z,8.73
2019-06-27T13:54:59.189Z,8.67
2019-06-27T13:57:29.559Z,14.73
2019-06-27T14:00:01.446Z,8.10
2019-06-27T14:02:33.710Z,7.87
2019-06-27T14:05:07.786Z,8.57
2019-06-27T14:07:39.274Z,8.73
2019-06-27T14:10:10.531Z,8.57
2019-06-27T14:12:44.618Z,8.77
2019-06-27T14:15:13.761Z,13.93
2019-06-27T14:17:44.130Z,7.73
2019-06-27T14:20:15.485Z,8.30
2019-06-27T14:22:46.534Z,9.77
2019-06-27T14:25:17.097Z,7.83
2019-06-27T14:27:47.474Z,12.53
2019-06-27T14:30:20.399Z,11.13
2019-06-27T14:32:53.278Z,10.87
2019-06-27T14:35:23.298Z,7.40
2019-06-27T14:37:56.822Z,11.80
2019-06-27T14:40:27.509Z,8.20
2019-06-27T14:42:58.016Z,8.80
2019-06-27T14:45:30.639Z,7.97
2019-06-27T14:48:01.006Z,7.50
2019-06-27T14:50:31.406Z,8.13
2019-06-27T14:53:02.127Z,8.13
2019-06-27T14:55:32.678Z,9.80
2019-06-27T14:58:03.263Z,9.03
2019-06-27T15:00:34.003Z,12.20
2019-06-27T15:03:04.938Z,8.40
2019-06-27T15:05:54.296Z,10.87
2019-06-27T15:08:26.967Z,8.70
2019-06-27T15:10:59.077Z,8.00
2019-06-27T15:13:29.992Z,6.30
2019-06-27T15:16:11.274Z,7.33
2019-06-27T15:18:34.159Z,8.47
2019-06-27T15:24:05.446Z,6.07
2019-06-27T15:26:36.052Z,9.90
2019-06-27T15:29:07.449Z,6.07
2019-06-27T15:31:38.785Z,7.90
2019-06-27T15:34:16.030Z,6.10
2019-06-27T15:36:42.171Z,6.70
2019-06-27T15:39:12.763Z,7.30
2019-06-27T15:41:43.211Z,10.07
2019-06-27T15:44:13.944Z,7.57
2019-06-27T15:46:44.488Z,4.93
2019-06-27T15:49:15.168Z,7.87
2019-06-27T15:51:45.914Z,5.87
2019-06-27T15:54:16.457Z,7.13
2019-06-27T15:56:47.087Z,6.80
2019-06-27T15:59:18.268Z,9.07
2019-06-27T16:01:49.300Z,8.10
2019-06-27T16:04:32.650Z,5.13
2019-06-27T16:06:52.188Z,4.93
2019-06-27T16:09:26.780Z,6.10
2019-06-27T16:11:57.390Z,6.50
2019-06-27T16:14:28.038Z,6.07
2019-06-27T16:16:58.962Z,3.53
2019-06-27T16:19:29.930Z,5.53
2019-06-27T16:22:00.495Z,4.63
2019-06-27T16:24:31.138Z,4.43
2019-06-27T16:27:02.066Z,4.20
2019-06-27T16:29:32.771Z,2.73
2019-06-27T16:32:03.457Z,7.50
2019-06-27T16:34:35.075Z,7.57
2019-06-27T16:37:05.758Z,5.60
2019-06-27T16:39:38.881Z,6.13
2019-06-27T16:42:14.069Z,6.03
2019-06-27T16:44:45.137Z,3.93
2019-06-27T16:47:15.732Z,4.77
2019-06-27T16:49:47.190Z,5.27
2019-06-27T16:52:18.261Z,3.60
2019-06-27T16:54:48.892Z,6.33
2019-06-27T16:57:19.946Z,6.50
2019-06-27T16:59:55.268Z,5.37
2019-06-27T17:02:25.980Z,2.27
2019-06-27T17:04:57.001Z,7.57
2019-06-27T17:07:28.211Z,6.30
2019-06-27T17:10:00.169Z,5.67
2019-06-27T17:12:32.587Z,7.30
2019-06-27T17:15:06.468Z,7.90
2019-06-27T17:17:37.152Z,5.23
2019-06-27T17:20:10.770Z,2.43
2019-06-27T17:22:41.365Z,3.13
2019-06-27T17:28:12.847Z,3.17
2019-06-27T17:30:44.332Z,2.33
2019-06-27T17:33:18.645Z,6.50
2019-06-27T17:35:49.474Z,5.17
2019-06-27T17:38:20.007Z,2.23
2019-06-27T17:40:50.629Z,5.07
2019-06-27T17:43:21.045Z,5.50
2019-06-27T17:45:51.594Z,4.70
2019-06-27T17:48:23.043Z,4.63
2019-06-27T17:50:53.728Z,2.70
2019-06-27T17:53:24.567Z,5.83
2019-06-27T17:55:57.509Z,2.73
2019-06-27T17:58:27.754Z,3.67
2019-06-27T18:01:00.040Z,5.90
2019-06-27T18:03:31.963Z,2.80
2019-06-27T18:06:02.433Z,2.63
2019-06-27T18:08:33.022Z,4.47
2019-06-27T18:11:05.377Z,13.07
2019-06-27T18:13:40.186Z,6.87
2019-06-27T18:16:14.351Z,6.53
2019-06-27T18:18:47.668Z,2.47
2019-06-27T18:21:17.347Z,2.63
2019-06-27T18:23:47.974Z,11.73
2019-06-27T18:26:18.534Z,4.87
2019-06-27T18:28:52.666Z,4.87
2019-06-27T18:31:24.072Z,2.83
2019-06-27T18:33:54.637Z,2.63
2019-06-27T18:36:25.993Z,2.93
2019-06-27T18:39:02.860Z,3.27
2019-06-27T18:41:33.338Z,5.53
2019-06-27T18:44:04.078Z,3.10
2019-06-27T18:46:34.798Z,5.37
2019-06-27T18:49:05.383Z,4.23
2019-06-27T18:51:36.165Z,5.47
2019-06-27T18:54:06.807Z,3.73
2019-06-27T18:56:37.497Z,4.73
2019-06-27T18:59:08.182Z,5.87
2019-06-27T19:01:44.041Z,5.20
2019-06-27T19:04:15.428Z,6.40
2019-06-27T19:06:46.409Z,6.57
2019-06-27T19:09:17.269Z,4.83
2019-06-27T19:11:49.330Z,6.27
2019-06-27T19:14:20.737Z,4.23
2019-06-27T19:16:51.846Z,8.10
2019-06-27T19:19:26.790Z,4.77
2019-06-27T19:21:59.019Z,3.47
2019-06-27T19:24:31.406Z,3.40
2019-06-27T19:27:03.375Z,13.00
2019-06-27T19:29:33.908Z,5.03
2019-06-27T19:32:04.449Z,6.33
2019-06-27T19:34:35.102Z,10.10
2019-06-27T19:37:05.846Z,5.80
2019-06-27T19:39:38.144Z,3.87
2019-06-27T19:42:08.941Z,3.40
2019-06-27T19:44:40.252Z,10.87
2019-06-27T19:47:10.837Z,4.27
2019-06-27T19:49:41.803Z,5.47
2019-06-27T19:52:15.596Z,6.15
2019-06-27T19:54:45.530Z,3.97
2019-06-27T19:57:20.774Z,5.93
2019-06-27T19:59:54.931Z,8.97
2019-06-27T20:02:25.508Z,4.77
2019-06-27T20:04:56.215Z,6.27
2019-06-27T20:07:27.229Z,9.50
2019-06-27T20:09:57.849Z,4.70
2019-06-27T20:12:29.292Z,5.27
2019-06-27T20:15:00.705Z,4.73
2019-06-27T20:17:31.364Z,4.80
2019-06-27T20:20:03.335Z,5.93
2019-06-27T20:22:34.294Z,5.70
2019-06-27T20:25:07.228Z,7.67
2019-06-27T20:27:38.299Z,7.67
2019-06-27T20:30:10.421Z,6.23
2019-06-27T20:32:44.432Z,3.73
2019-06-27T20:35:14.228Z,4.47
2019-06-27T20:37:45.177Z,5.50
2019-06-27T20:40:17.198Z,6.47
2019-06-27T20:42:49.321Z,3.73
2019-06-27T20:45:20.521Z,4.97
2019-06-27T20:47:51.992Z,3.67
2019-06-27T20:50:23.127Z,7.27
2019-06-27T20:52:53.852Z,6.67
2019-06-27T20:55:24.487Z,5.30
2019-06-27T20:57:56.148Z,5.40
2019-06-27T21:00:26.966Z,3.73
2019-06-27T21:02:57.596Z,5.90
2019-06-27T21:05:28.224Z,7.27
2019-06-27T21:07:58.842Z,6.10
2019-06-27T21:10:29.609Z,6.50
2019-06-27T21:13:03.826Z,7.90
2019-06-27T21:15:34.914Z,18.03
2019-06-27T21:18:05.624Z,29.60
2019-06-27T21:20:36.167Z,14.70
2019-06-27T21:23:06.708Z,7.00
2019-06-27T21:25:37.614Z,3.90
2019-06-27T21:28:08.295Z,5.43
2019-06-27T21:30:38.901Z,5.30
2019-06-27T21:36:11.756Z,4.13
2019-06-27T21:38:42.398Z,24.97
2019-06-27T21:41:13.328Z,37.40
2019-06-27T21:43:43.875Z,35.60
2019-06-27T21:46:14.495Z,15.50
2019-06-27T21:48:45.690Z,7.43
2019-06-27T21:51:20.492Z,5.77
2019-06-27T21:53:51.202Z,4.70
2019-06-27T21:56:21.772Z,4.60
2019-06-27T21:58:52.916Z,6.50
2019-06-27T22:01:23.803Z,7.40
2019-06-27T22:03:54.961Z,4.67
2019-06-27T22:06:25.520Z,4.53
2019-06-27T22:08:56.081Z,5.43
2019-06-27T22:11:26.836Z,3.80
2019-06-27T22:13:58.270Z,4.00
2019-06-27T22:16:28.794Z,6.57
2019-06-27T22:18:59.495Z,6.30
2019-06-27T22:21:30.108Z,4.00
2019-06-27T22:24:00.813Z,4.47
2019-06-27T22:26:32.809Z,4.57
2019-06-27T22:29:03.723Z,4.37
2019-06-27T22:31:36.979Z,6.73
2019-06-27T22:34:07.693Z,10.67
2019-06-27T22:36:38.616Z,5.77
2019-06-27T22:39:40.004Z,7.70
2019-06-27T22:42:17.417Z,5.70
2019-06-27T22:45:06.013Z,6.93
2019-06-27T22:47:54.953Z,5.07
2019-06-27T22:50:44.872Z,5.70
2019-06-27T22:53:20.921Z,4.23
2019-06-27T22:55:52.437Z,2.57
2019-06-27T22:58:23.217Z,3.83
2019-06-27T23:01:02.175Z,4.70
2019-06-27T23:03:33.168Z,6.67
2019-06-27T23:06:03.760Z,5.20
2019-06-27T23:08:34.398Z,2.70
2019-06-27T23:11:05.158Z,7.43
2019-06-27T23:13:35.966Z,3.27
2019-06-27T23:16:07.564Z,6.77
2019-06-27T23:18:38.470Z,5.30
2019-06-27T23:21:09.071Z,5.13
2019-06-27T23:23:39.712Z,4.00
2019-06-27T23:26:14.098Z,6.03
2019-06-27T23:28:45.086Z,4.03
2019-06-27T23:31:15.755Z,4.13
2019-06-27T23:33:46.230Z,3.40
2019-06-27T23:36:22.568Z,6.33
2019-06-27T23:38:53.263Z,4.43
2019-06-27T23:41:23.878Z,5.00
2019-06-27T23:43:54.406Z,3.63
2019-06-27T23:46:48.645Z,4.80
2019-06-27T23:49:19.481Z,4.07
2019-06-27T23:51:50.444Z,4.77
2019-06-27T23:54:20.981Z,7.13
2019-06-27T23:56:51.901Z,4.30
2019-06-27T23:59:22.791Z,5.13
